sensor_id;sensor_type;location;lat;lon;timestamp;pressure;altitude;pressure_sealevel;temperature;humidity
77877;BME280;67251;50.844;7.978;2023-07-13T00:00:46;98755.06;;;14.29;62.75
77877;BME280;67251;50.844;7.978;2023-07-13T00:03:11;98752.47;;;14.22;62.75
77877;BME280;67251;50.844;7.978;2023-07-13T00:05:39;98753.56;;;14.03;62.87
77877;BME280;67251;50.844;7.978;2023-07-13T00:08:05;98757.06;;;13.85;64.56
77877;BME280;67251;50.844;7.978;2023-07-13T00:10:30;98752.88;;;13.71;64.99
77877;BME280;67251;50.844;7.978;2023-07-13T00:12:56;98758.31;;;13.64;65.99
77877;BME280;67251;50.844;7.978;2023-07-13T00:15:25;98765.66;;;13.57;66.32
77877;BME280;67251;50.844;7.978;2023-07-13T00:17:51;98749.41;;;13.45;67.34
77877;BME280;67251;50.844;7.978;2023-07-13T00:20:17;98753.81;;;13.40;67.52
77877;BME280;67251;50.844;7.978;2023-07-13T00:22:43;98743.84;;;13.22;67.82
77877;BME280;67251;50.844;7.978;2023-07-13T00:25:11;98746.84;;;13.07;68.58
77877;BME280;67251;50.844;7.978;2023-07-13T00:27:37;98755.63;;;12.96;69.32
77877;BME280;67251;50.844;7.978;2023-07-13T00:30:02;98748.31;;;12.78;69.59
77877;BME280;67251;50.844;7.978;2023-07-13T00:32:28;98748.63;;;12.63;69.78
77877;BME280;67251;50.844;7.978;2023-07-13T00:34:55;98748.28;;;12.53;70.35
77877;BME280;67251;50.844;7.978;2023-07-13T00:37:20;98742.75;;;12.41;70.45
77877;BME280;67251;50.844;7.978;2023-07-13T00:39:46;98740.56;;;12.32;70.58
77877;BME280;67251;50.844;7.978;2023-07-13T00:42:11;98733.38;;;12.25;70.40
77877;BME280;67251;50.844;7.978;2023-07-13T00:44:37;98736.91;;;12.19;70.49
77877;BME280;67251;50.844;7.978;2023-07-13T00:47:04;98746.44;;;12.09;70.88
77877;BME280;67251;50.844;7.978;2023-07-13T00:49:32;98744.03;;;12.00;71.11
77877;BME280;67251;50.844;7.978;2023-07-13T00:52:04;98745.47;;;11.90;71.29
77877;BME280;67251;50.844;7.978;2023-07-13T00:54:34;98749.25;;;11.82;71.31
77877;BME280;67251;50.844;7.978;2023-07-13T00:57:03;98749.41;;;11.81;71.31
77877;BME280;67251;50.844;7.978;2023-07-13T00:59:30;98744.03;;;11.81;71.88
77877;BME280;67251;50.844;7.978;2023-07-13T01:01:56;98745.06;;;11.80;71.79
77877;BME280;67251;50.844;7.978;2023-07-13T01:04:24;98752.72;;;11.76;71.97
77877;BME280;67251;50.844;7.978;2023-07-13T01:06:50;98750.69;;;11.65;72.30
77877;BME280;67251;50.844;7.978;2023-07-13T01:09:16;98757.09;;;11.57;72.71
77877;BME280;67251;50.844;7.978;2023-07-13T01:11:41;98758.75;;;11.51;73.19
77877;BME280;67251;50.844;7.978;2023-07-13T01:14:08;98761.25;;;11.46;73.64
77877;BME280;67251;50.844;7.978;2023-07-13T01:16:35;98756.31;;;11.37;73.47
77877;BME280;67251;50.844;7.978;2023-07-13T01:19:01;98757.56;;;11.27;73.90
77877;BME280;67251;50.844;7.978;2023-07-13T01:21:31;98760.88;;;11.16;74.49
77877;BME280;67251;50.844;7.978;2023-07-13T01:23:57;98761.47;;;11.05;75.10
77877;BME280;67251;50.844;7.978;2023-07-13T01:26:23;98770.16;;;10.94;75.54
77877;BME280;67251;50.844;7.978;2023-07-13T01:28:49;98772.63;;;10.82;76.27
77877;BME280;67251;50.844;7.978;2023-07-13T01:31:15;98768.06;;;10.69;76.62
77877;BME280;67251;50.844;7.978;2023-07-13T01:33:41;98765.16;;;10.58;77.02
77877;BME280;67251;50.844;7.978;2023-07-13T01:36:08;98760.19;;;10.48;77.45
77877;BME280;67251;50.844;7.978;2023-07-13T01:38:35;98761.63;;;10.44;77.98
77877;BME280;67251;50.844;7.978;2023-07-13T01:41:00;98757.31;;;10.43;78.73
77877;BME280;67251;50.844;7.978;2023-07-13T01:43:26;98748.03;;;10.39;78.67
77877;BME280;67251;50.844;7.978;2023-07-13T01:45:51;98754.59;;;10.30;78.65
77877;BME280;67251;50.844;7.978;2023-07-13T01:51:51;98754.53;;;10.16;78.75
77877;BME280;67251;50.844;7.978;2023-07-13T01:54:17;98755.53;;;10.09;78.83
77877;BME280;67251;50.844;7.978;2023-07-13T01:56:42;98747.88;;;9.99;79.36
77877;BME280;67251;50.844;7.978;2023-07-13T01:59:08;98746.63;;;9.95;80.50
77877;BME280;67251;50.844;7.978;2023-07-13T02:01:34;98754.63;;;9.88;80.88
77877;BME280;67251;50.844;7.978;2023-07-13T02:03:59;98752.34;;;9.79;81.13
77877;BME280;67251;50.844;7.978;2023-07-13T02:06:25;98755.16;;;9.70;81.76
77877;BME280;67251;50.844;7.978;2023-07-13T02:08:50;98765.19;;;9.62;82.12
77877;BME280;67251;50.844;7.978;2023-07-13T02:11:15;98768.19;;;9.52;82.53
77877;BME280;67251;50.844;7.978;2023-07-13T02:13:41;98765.47;;;9.45;82.97
77877;BME280;67251;50.844;7.978;2023-07-13T02:16:06;98764.66;;;9.45;84.73
77877;BME280;67251;50.844;7.978;2023-07-13T02:18:32;98765.88;;;9.42;84.52
77877;BME280;67251;50.844;7.978;2023-07-13T02:20:58;98762.78;;;9.39;85.00
77877;BME280;67251;50.844;7.978;2023-07-13T02:23:23;98764.84;;;9.43;85.77
77877;BME280;67251;50.844;7.978;2023-07-13T02:25:49;98764.41;;;9.40;85.58
77877;BME280;67251;50.844;7.978;2023-07-13T02:28:14;98764.59;;;9.32;85.64
77877;BME280;67251;50.844;7.978;2023-07-13T02:30:39;98769.25;;;9.23;86.04
77877;BME280;67251;50.844;7.978;2023-07-13T02:33:05;98760.56;;;9.14;86.39
77877;BME280;67251;50.844;7.978;2023-07-13T02:35:30;98764.84;;;9.09;86.55
77877;BME280;67251;50.844;7.978;2023-07-13T02:37:56;98771.31;;;9.00;86.81
77877;BME280;67251;50.844;7.978;2023-07-13T02:40:22;98771.06;;;8.94;87.41
77877;BME280;67251;50.844;7.978;2023-07-13T02:42:47;98773.50;;;8.89;87.71
77877;BME280;67251;50.844;7.978;2023-07-13T02:45:13;98762.53;;;8.84;87.71
77877;BME280;67251;50.844;7.978;2023-07-13T02:47:40;98768.66;;;8.78;87.81
77877;BME280;67251;50.844;7.978;2023-07-13T02:50:06;98781.56;;;8.75;88.14
77877;BME280;67251;50.844;7.978;2023-07-13T02:52:32;98776.78;;;8.70;88.35
77877;BME280;67251;50.844;7.978;2023-07-13T02:54:57;98776.53;;;8.65;88.41
77877;BME280;67251;50.844;7.978;2023-07-13T02:57:23;98772.78;;;8.59;88.80
77877;BME280;67251;50.844;7.978;2023-07-13T02:59:48;98777.88;;;8.54;89.40
77877;BME280;67251;50.844;7.978;2023-07-13T03:02:13;98777.25;;;8.52;89.88
77877;BME280;67251;50.844;7.978;2023-07-13T03:04:39;98782.94;;;8.49;90.03
77877;BME280;67251;50.844;7.978;2023-07-13T03:07:06;98774.69;;;8.44;90.28
77877;BME280;67251;50.844;7.978;2023-07-13T03:09:33;98781.41;;;8.40;90.51
77877;BME280;67251;50.844;7.978;2023-07-13T03:11:59;98785.63;;;8.34;90.90
77877;BME280;67251;50.844;7.978;2023-07-13T03:14:25;98785.84;;;8.33;90.90
77877;BME280;67251;50.844;7.978;2023-07-13T03:16:51;98779.66;;;8.32;91.19
77877;BME280;67251;50.844;7.978;2023-07-13T03:19:17;98778.66;;;8.33;91.19
77877;BME280;67251;50.844;7.978;2023-07-13T03:21:43;98779.03;;;8.30;91.42
77877;BME280;67251;50.844;7.978;2023-07-13T03:24:08;98785.53;;;8.28;91.62
77877;BME280;67251;50.844;7.978;2023-07-13T03:26:33;98779.78;;;8.24;91.99
77877;BME280;67251;50.844;7.978;2023-07-13T03:28:59;98786.75;;;8.25;91.90
77877;BME280;67251;50.844;7.978;2023-07-13T03:31:27;98796.66;;;8.31;92.12
77877;BME280;67251;50.844;7.978;2023-07-13T03:33:54;98791.50;;;8.44;92.67
77877;BME280;67251;50.844;7.978;2023-07-13T03:36:22;98797.00;;;8.58;92.26
77877;BME280;67251;50.844;7.978;2023-07-13T03:38:50;98804.31;;;8.70;91.79
77877;BME280;67251;50.844;7.978;2023-07-13T03:41:16;98806.25;;;8.83;90.93
77877;BME280;67251;50.844;7.978;2023-07-13T03:43:42;98814.75;;;8.93;90.29
77877;BME280;67251;50.844;7.978;2023-07-13T03:46:09;98806.84;;;9.00;89.75
77877;BME280;67251;50.844;7.978;2023-07-13T03:48:34;98809.38;;;9.08;89.69
77877;BME280;67251;50.844;7.978;2023-07-13T03:51:00;98811.88;;;9.16;89.26
77877;BME280;67251;50.844;7.978;2023-07-13T03:53:25;98808.06;;;9.26;89.06
77877;BME280;67251;50.844;7.978;2023-07-13T03:55:51;98811.63;;;9.33;88.92
77877;BME280;67251;50.844;7.978;2023-07-13T03:58:28;98819.47;;;9.41;88.56
77877;BME280;67251;50.844;7.978;2023-07-13T04:00:54;98821.81;;;9.51;88.21
77877;BME280;67251;50.844;7.978;2023-07-13T04:03:20;98824.16;;;9.60;87.92
77877;BME280;67251;50.844;7.978;2023-07-13T04:05:46;98815.97;;;9.68;87.53
77877;BME280;67251;50.844;7.978;2023-07-13T04:08:12;98808.44;;;9.79;87.08
77877;BME280;67251;50.844;7.978;2023-07-13T04:10:38;98814.03;;;9.90;86.57
77877;BME280;67251;50.844;7.978;2023-07-13T04:13:04;98811.84;;;10.01;86.09
77877;BME280;67251;50.844;7.978;2023-07-13T04:15:31;98817.84;;;10.09;85.54
77877;BME280;67251;50.844;7.978;2023-07-13T04:17:57;98826.13;;;10.21;85.21
77877;BME280;67251;50.844;7.978;2023-07-13T04:20:24;98819.19;;;10.33;84.71
77877;BME280;67251;50.844;7.978;2023-07-13T04:22:50;98819.69;;;10.50;83.93
77877;BME280;67251;50.844;7.978;2023-07-13T04:25:16;98820.56;;;10.64;84.10
77877;BME280;67251;50.844;7.978;2023-07-13T04:27:41;98820.38;;;10.85;83.15
77877;BME280;67251;50.844;7.978;2023-07-13T04:30:07;98819.81;;;11.30;81.55
77877;BME280;67251;50.844;7.978;2023-07-13T04:32:33;98819.00;;;12.72;76.62
77877;BME280;67251;50.844;7.978;2023-07-13T04:34:58;98813.72;;;14.75;69.28
77877;BME280;67251;50.844;7.978;2023-07-13T04:37:25;98812.22;;;16.15;63.93
77877;BME280;67251;50.844;7.978;2023-07-13T04:39:51;98815.22;;;16.30;62.76
77877;BME280;67251;50.844;7.978;2023-07-13T04:42:16;98814.47;;;15.59;64.65
77877;BME280;67251;50.844;7.978;2023-07-13T04:44:41;98819.97;;;14.88;66.76
77877;BME280;67251;50.844;7.978;2023-07-13T04:47:07;98824.69;;;14.25;68.55
77877;BME280;67251;50.844;7.978;2023-07-13T04:49:32;98826.91;;;13.73;70.60
77877;BME280;67251;50.844;7.978;2023-07-13T04:51:58;98823.09;;;13.38;71.28
77877;BME280;67251;50.844;7.978;2023-07-13T04:54:23;98818.72;;;13.12;72.48
77877;BME280;67251;50.844;7.978;2023-07-13T04:56:48;98825.88;;;12.93;73.13
77877;BME280;67251;50.844;7.978;2023-07-13T04:59:14;98820.56;;;12.79;73.74
77877;BME280;67251;50.844;7.978;2023-07-13T05:01:39;98820.22;;;12.69;74.02
77877;BME280;67251;50.844;7.978;2023-07-13T05:04:06;98830.78;;;12.64;73.95
77877;BME280;67251;50.844;7.978;2023-07-13T05:06:31;98833.47;;;12.64;73.88
77877;BME280;67251;50.844;7.978;2023-07-13T05:08:57;98828.09;;;12.64;74.03
77877;BME280;67251;50.844;7.978;2023-07-13T05:11:23;98826.88;;;12.67;73.73
77877;BME280;67251;50.844;7.978;2023-07-13T05:13:49;98822.31;;;12.67;73.67
77877;BME280;67251;50.844;7.978;2023-07-13T05:16:14;98824.78;;;12.69;73.82
77877;BME280;67251;50.844;7.978;2023-07-13T05:18:40;98821.50;;;12.67;74.14
77877;BME280;67251;50.844;7.978;2023-07-13T05:21:07;98821.06;;;12.70;74.01
77877;BME280;67251;50.844;7.978;2023-07-13T05:23:34;98823.53;;;12.71;74.20
77877;BME280;67251;50.844;7.978;2023-07-13T05:26:00;98824.13;;;12.73;74.67
77877;BME280;67251;50.844;7.978;2023-07-13T05:28:26;98828.22;;;12.83;73.88
77877;BME280;67251;50.844;7.978;2023-07-13T05:30:52;98833.09;;;12.92;74.07
77877;BME280;67251;50.844;7.978;2023-07-13T05:33:20;98836.59;;;12.99;74.00
77877;BME280;67251;50.844;7.978;2023-07-13T05:35:45;98836.09;;;13.09;72.72
77877;BME280;67251;50.844;7.978;2023-07-13T05:38:11;98837.03;;;13.21;72.18
77877;BME280;67251;50.844;7.978;2023-07-13T05:40:37;98843.78;;;13.37;71.68
77877;BME280;67251;50.844;7.978;2023-07-13T05:43:02;98850.69;;;13.51;70.75
77877;BME280;67251;50.844;7.978;2023-07-13T05:45:28;98849.72;;;13.64;70.44
77877;BME280;67251;50.844;7.978;2023-07-13T05:47:53;98846.94;;;13.77;69.34
77877;BME280;67251;50.844;7.978;2023-07-13T05:50:18;98853.22;;;13.90;67.98
77877;BME280;67251;50.844;7.978;2023-07-13T05:52:44;98850.03;;;13.99;68.61
77877;BME280;67251;50.844;7.978;2023-07-13T05:55:09;98849.88;;;14.13;67.38
77877;BME280;67251;50.844;7.978;2023-07-13T05:57:34;98851.00;;;14.23;66.96
77877;BME280;67251;50.844;7.978;2023-07-13T06:00:00;98852.50;;;14.38;66.48
77877;BME280;67251;50.844;7.978;2023-07-13T06:02:25;98848.84;;;14.50;66.69
77877;BME280;67251;50.844;7.978;2023-07-13T06:04:51;98847.53;;;14.71;65.76
77877;BME280;67251;50.844;7.978;2023-07-13T06:07:17;98843.84;;;14.84;65.05
77877;BME280;67251;50.844;7.978;2023-07-13T06:09:42;98847.41;;;14.96;64.41
77877;BME280;67251;50.844;7.978;2023-07-13T06:12:08;98856.84;;;15.82;61.51
77877;BME280;67251;50.844;7.978;2023-07-13T06:14:33;98857.63;;;18.55;54.23
77877;BME280;67251;50.844;7.978;2023-07-13T06:16:59;98840.22;;;21.48;45.97
77877;BME280;67251;50.844;7.978;2023-07-13T06:19:24;98844.34;;;23.50;40.80
77877;BME280;67251;50.844;7.978;2023-07-13T06:21:49;98844.81;;;24.87;38.31
77877;BME280;67251;50.844;7.978;2023-07-13T06:24:15;98836.91;;;25.42;35.92
77877;BME280;67251;50.844;7.978;2023-07-13T06:26:40;98840.59;;;25.51;36.30
77877;BME280;67251;50.844;7.978;2023-07-13T06:29:05;98847.38;;;26.46;35.10
77877;BME280;67251;50.844;7.978;2023-07-13T06:31:31;98838.50;;;27.49;32.85
77877;BME280;67251;50.844;7.978;2023-07-13T06:33:56;98849.06;;;28.10;31.93
77877;BME280;67251;50.844;7.978;2023-07-13T06:36:22;98846.88;;;27.44;32.42
77877;BME280;67251;50.844;7.978;2023-07-13T06:38:47;98839.88;;;28.14;31.66
77877;BME280;67251;50.844;7.978;2023-07-13T06:41:13;98843.53;;;28.41;31.33
77877;BME280;67251;50.844;7.978;2023-07-13T06:43:38;98853.47;;;27.88;31.57
77877;BME280;67251;50.844;7.978;2023-07-13T06:46:03;98853.63;;;28.23;31.23
77877;BME280;67251;50.844;7.978;2023-07-13T06:48:29;98857.16;;;27.84;32.26
77877;BME280;67251;50.844;7.978;2023-07-13T06:50:55;98853.19;;;28.78;30.07
77877;BME280;67251;50.844;7.978;2023-07-13T06:53:21;98850.97;;;29.49;29.65
77877;BME280;67251;50.844;7.978;2023-07-13T06:55:47;98854.16;;;30.03;28.63
77877;BME280;67251;50.844;7.978;2023-07-13T06:58:17;98848.47;;;30.00;28.97
77877;BME280;67251;50.844;7.978;2023-07-13T07:00:43;98857.16;;;29.72;28.71
77877;BME280;67251;50.844;7.978;2023-07-13T07:03:09;98848.63;;;30.12;28.64
77877;BME280;67251;50.844;7.978;2023-07-13T07:05:34;98854.72;;;30.35;28.54
77877;BME280;67251;50.844;7.978;2023-07-13T07:08:00;98861.69;;;30.33;27.94
77877;BME280;67251;50.844;7.978;2023-07-13T07:10:26;98854.56;;;29.67;28.68
77877;BME280;67251;50.844;7.978;2023-07-13T07:12:51;98855.38;;;29.33;29.98
77877;BME280;67251;50.844;7.978;2023-07-13T07:15:17;98855.03;;;29.78;29.10
77877;BME280;67251;50.844;7.978;2023-07-13T07:17:43;98858.31;;;29.28;29.46
77877;BME280;67251;50.844;7.978;2023-07-13T07:20:09;98866.59;;;27.69;31.92
77877;BME280;67251;50.844;7.978;2023-07-13T07:22:34;98870.31;;;26.23;34.06
77877;BME280;67251;50.844;7.978;2023-07-13T07:25:00;98886.06;;;24.71;36.79
77877;BME280;67251;50.844;7.978;2023-07-13T07:27:25;98884.03;;;25.01;36.92
77877;BME280;67251;50.844;7.978;2023-07-13T07:29:51;98866.69;;;26.69;34.47
77877;BME280;67251;50.844;7.978;2023-07-13T07:32:16;98866.56;;;28.14;32.02
77877;BME280;67251;50.844;7.978;2023-07-13T07:34:42;98868.09;;;28.77;31.53
77877;BME280;67251;50.844;7.978;2023-07-13T07:37:10;98866.03;;;28.91;30.94
77877;BME280;67251;50.844;7.978;2023-07-13T07:39:36;98872.41;;;27.90;32.39
77877;BME280;67251;50.844;7.978;2023-07-13T07:42:02;98869.84;;;27.26;33.93
77877;BME280;67251;50.844;7.978;2023-07-13T07:44:28;98865.09;;;27.85;31.52
77877;BME280;67251;50.844;7.978;2023-07-13T07:46:53;98867.28;;;27.97;32.63
77877;BME280;67251;50.844;7.978;2023-07-13T07:49:20;98862.13;;;28.92;30.53
77877;BME280;67251;50.844;7.978;2023-07-13T07:51:45;98861.88;;;29.46;29.40
77877;BME280;67251;50.844;7.978;2023-07-13T07:54:11;98865.41;;;30.37;28.61
77877;BME280;67251;50.844;7.978;2023-07-13T07:56:36;98865.44;;;30.66;27.61
77877;BME280;67251;50.844;7.978;2023-07-13T07:59:01;98874.16;;;28.96;29.88
77877;BME280;67251;50.844;7.978;2023-07-13T08:01:27;98865.09;;;29.48;28.83
77877;BME280;67251;50.844;7.978;2023-07-13T08:03:52;98868.19;;;29.38;30.34
77877;BME280;67251;50.844;7.978;2023-07-13T08:06:18;98864.63;;;29.72;29.39
77877;BME280;67251;50.844;7.978;2023-07-13T08:08:45;98869.66;;;29.61;29.29
77877;BME280;67251;50.844;7.978;2023-07-13T08:11:10;98867.69;;;29.79;29.36
77877;BME280;67251;50.844;7.978;2023-07-13T08:13:37;98871.19;;;30.14;28.33
77877;BME280;67251;50.844;7.978;2023-07-13T08:16:04;98870.28;;;29.15;30.20
77877;BME280;67251;50.844;7.978;2023-07-13T08:18:30;98864.63;;;29.37;29.97
77877;BME280;67251;50.844;7.978;2023-07-13T08:20:55;98868.38;;;29.41;29.95
77877;BME280;67251;50.844;7.978;2023-07-13T08:23:25;98865.44;;;29.38;29.55
77877;BME280;67251;50.844;7.978;2023-07-13T08:25:52;98863.31;;;29.43;29.74
77877;BME280;67251;50.844;7.978;2023-07-13T08:28:18;98854.25;;;29.34;30.40
77877;BME280;67251;50.844;7.978;2023-07-13T08:30:43;98861.03;;;29.11;30.86
77877;BME280;67251;50.844;7.978;2023-07-13T08:33:09;98864.13;;;29.00;31.33
77877;BME280;67251;50.844;7.978;2023-07-13T08:35:34;98853.91;;;28.13;30.71
77877;BME280;67251;50.844;7.978;2023-07-13T08:37:59;98865.00;;;28.70;30.91
77877;BME280;67251;50.844;7.978;2023-07-13T08:40:26;98864.13;;;28.12;31.87
77877;BME280;67251;50.844;7.978;2023-07-13T08:43:01;98870.50;;;26.13;34.58
77877;BME280;67251;50.844;7.978;2023-07-13T08:45:39;98872.06;;;25.86;35.61
77877;BME280;67251;50.844;7.978;2023-07-13T08:48:24;98864.00;;;26.36;34.66
77877;BME280;67251;50.844;7.978;2023-07-13T08:51:08;98864.16;;;26.59;35.19
77877;BME280;67251;50.844;7.978;2023-07-13T08:53:43;98869.53;;;26.64;34.17
77877;BME280;67251;50.844;7.978;2023-07-13T08:56:18;98863.84;;;25.67;36.11
77877;BME280;67251;50.844;7.978;2023-07-13T08:58:44;98868.91;;;25.09;37.30
77877;BME280;67251;50.844;7.978;2023-07-13T09:03:55;98870.75;;;25.13;37.00
77877;BME280;67251;50.844;7.978;2023-07-13T09:06:33;98863.72;;;25.78;36.71
77877;BME280;67251;50.844;7.978;2023-07-13T09:09:09;98853.56;;;25.45;35.43
77877;BME280;67251;50.844;7.978;2023-07-13T09:16:58;98864.72;;;25.30;35.40
77877;BME280;67251;50.844;7.978;2023-07-13T09:19:28;98849.38;;;26.13;35.99
77877;BME280;67251;50.844;7.978;2023-07-13T09:21:55;98862.78;;;26.84;34.79
77877;BME280;67251;50.844;7.978;2023-07-13T09:27:09;98858.59;;;27.36;33.53
77877;BME280;67251;50.844;7.978;2023-07-13T09:29:41;98844.06;;;27.36;32.10
77877;BME280;67251;50.844;7.978;2023-07-13T09:32:10;98850.72;;;27.88;33.04
77877;BME280;67251;50.844;7.978;2023-07-13T09:34:38;98854.41;;;28.37;32.02
77877;BME280;67251;50.844;7.978;2023-07-13T09:37:03;98860.22;;;27.37;32.73
77877;BME280;67251;50.844;7.978;2023-07-13T09:39:33;98864.81;;;26.92;33.68
77877;BME280;67251;50.844;7.978;2023-07-13T09:42:16;98865.59;;;27.65;32.54
77877;BME280;67251;50.844;7.978;2023-07-13T09:47:21;98854.34;;;28.77;30.71
77877;BME280;67251;50.844;7.978;2023-07-13T09:50:01;98857.84;;;27.89;30.81
77877;BME280;67251;50.844;7.978;2023-07-13T09:52:29;98861.59;;;27.26;33.19
77877;BME280;67251;50.844;7.978;2023-07-13T09:55:04;98871.81;;;26.98;32.50
77877;BME280;67251;50.844;7.978;2023-07-13T09:57:30;98868.66;;;26.08;34.34
77877;BME280;67251;50.844;7.978;2023-07-13T09:59:56;98870.88;;;25.41;35.69
77877;BME280;67251;50.844;7.978;2023-07-13T10:05:06;98866.75;;;25.76;35.21
77877;BME280;67251;50.844;7.978;2023-07-13T10:07:38;98848.53;;;26.82;33.28
77877;BME280;67251;50.844;7.978;2023-07-13T10:10:13;98856.91;;;26.63;34.22
77877;BME280;67251;50.844;7.978;2023-07-13T10:12:39;98865.38;;;25.79;34.83
77877;BME280;67251;50.844;7.978;2023-07-13T10:15:14;98859.19;;;26.00;36.87
77877;BME280;67251;50.844;7.978;2023-07-13T10:17:41;98859.59;;;26.54;34.88
77877;BME280;67251;50.844;7.978;2023-07-13T10:20:07;98870.06;;;27.38;33.46
77877;BME280;67251;50.844;7.978;2023-07-13T10:25:23;98849.16;;;27.96;33.03
77877;BME280;67251;50.844;7.978;2023-07-13T10:27:50;98858.53;;;27.95;32.86
77877;BME280;67251;50.844;7.978;2023-07-13T10:30:32;98864.66;;;27.47;34.32
77877;BME280;67251;50.844;7.978;2023-07-13T10:33:02;98855.84;;;26.86;33.53
77877;BME280;67251;50.844;7.978;2023-07-13T10:35:29;98868.00;;;26.44;34.65
77877;BME280;67251;50.844;7.978;2023-07-13T10:38:01;98869.97;;;25.64;35.71
77877;BME280;67251;50.844;7.978;2023-07-13T10:40:39;98872.16;;;25.11;37.53
77877;BME280;67251;50.844;7.978;2023-07-13T10:43:17;98871.50;;;24.76;37.28
77877;BME280;67251;50.844;7.978;2023-07-13T10:45:45;98873.44;;;24.76;37.56
77877;BME280;67251;50.844;7.978;2023-07-13T10:48:14;98871.44;;;24.81;36.72
77877;BME280;67251;50.844;7.978;2023-07-13T10:50:42;98878.25;;;24.60;37.21
77877;BME280;67251;50.844;7.978;2023-07-13T10:53:33;98876.00;;;24.67;39.17
77877;BME280;67251;50.844;7.978;2023-07-13T10:56:01;98877.38;;;25.07;36.10
77877;BME280;67251;50.844;7.978;2023-07-13T10:58:42;98881.47;;;25.10;36.09
77877;BME280;67251;50.844;7.978;2023-07-13T11:01:15;98873.53;;;24.89;36.05
77877;BME280;67251;50.844;7.978;2023-07-13T11:03:55;98873.72;;;25.49;35.50
77877;BME280;67251;50.844;7.978;2023-07-13T11:11:35;98881.66;;;24.94;37.20
77877;BME280;67251;50.844;7.978;2023-07-13T11:14:03;98880.94;;;25.08;36.09
77877;BME280;67251;50.844;7.978;2023-07-13T11:16:44;98879.09;;;25.03;35.73
77877;BME280;67251;50.844;7.978;2023-07-13T11:25:21;98868.91;;;25.09;37.52
77877;BME280;67251;50.844;7.978;2023-07-13T11:27:41;98863.34;;;25.33;36.95
77877;BME280;67251;50.844;7.978;2023-07-13T11:33:03;98866.66;;;24.68;36.69
77877;BME280;67251;50.844;7.978;2023-07-13T11:35:35;98874.53;;;24.51;37.17
77877;BME280;67251;50.844;7.978;2023-07-13T11:38:02;98877.59;;;24.20;37.23
77877;BME280;67251;50.844;7.978;2023-07-13T11:40:29;98882.81;;;24.16;37.70
77877;BME280;67251;50.844;7.978;2023-07-13T11:43:01;98864.03;;;24.82;37.71
77877;BME280;67251;50.844;7.978;2023-07-13T11:45:27;98866.63;;;24.92;35.92
77877;BME280;67251;50.844;7.978;2023-07-13T11:47:53;98872.44;;;24.66;37.75
77877;BME280;67251;50.844;7.978;2023-07-13T11:50:21;98877.41;;;24.40;36.26
77877;BME280;67251;50.844;7.978;2023-07-13T11:52:49;98873.38;;;23.75;36.34
77877;BME280;67251;50.844;7.978;2023-07-13T11:55:18;98874.66;;;23.09;38.79
77877;BME280;67251;50.844;7.978;2023-07-13T11:57:58;98889.25;;;22.89;41.02
77877;BME280;67251;50.844;7.978;2023-07-13T12:00:32;98882.75;;;23.63;39.64
77877;BME280;67251;50.844;7.978;2023-07-13T12:02:59;98880.03;;;24.21;39.44
77877;BME280;67251;50.844;7.978;2023-07-13T12:05:26;98874.84;;;24.49;38.78
77877;BME280;67251;50.844;7.978;2023-07-13T12:07:52;98878.94;;;24.52;38.14
77877;BME280;67251;50.844;7.978;2023-07-13T12:13:01;98892.88;;;23.63;40.12
77877;BME280;67251;50.844;7.978;2023-07-13T12:15:37;98891.38;;;23.81;40.58
77877;BME280;67251;50.844;7.978;2023-07-13T12:18:15;98903.78;;;23.68;40.20
77877;BME280;67251;50.844;7.978;2023-07-13T12:20:41;98908.16;;;23.25;40.30
77877;BME280;67251;50.844;7.978;2023-07-13T12:23:23;98902.63;;;22.80;40.80
77877;BME280;67251;50.844;7.978;2023-07-13T12:25:50;98903.16;;;22.77;42.73
77877;BME280;67251;50.844;7.978;2023-07-13T12:28:23;98901.25;;;22.83;41.12
77877;BME280;67251;50.844;7.978;2023-07-13T12:30:58;98895.78;;;22.93;41.05
77877;BME280;67251;50.844;7.978;2023-07-13T12:33:28;98890.38;;;23.27;39.52
77877;BME280;67251;50.844;7.978;2023-07-13T12:35:54;98887.03;;;24.04;39.25
77877;BME280;67251;50.844;7.978;2023-07-13T12:38:21;98884.44;;;24.17;37.96
77877;BME280;67251;50.844;7.978;2023-07-13T12:40:50;98891.28;;;24.20;37.00
77877;BME280;67251;50.844;7.978;2023-07-13T12:43:17;98891.22;;;24.25;36.94
77877;BME280;67251;50.844;7.978;2023-07-13T12:46:00;98897.13;;;24.08;38.00
77877;BME280;67251;50.844;7.978;2023-07-13T12:48:26;98910.34;;;23.67;38.56
77877;BME280;67251;50.844;7.978;2023-07-13T12:50:53;98908.56;;;23.42;39.52
77877;BME280;67251;50.844;7.978;2023-07-13T12:53:22;98911.72;;;23.64;39.05
77877;BME280;67251;50.844;7.978;2023-07-13T12:55:57;98913.41;;;23.55;40.71
77877;BME280;67251;50.844;7.978;2023-07-13T12:58:29;98907.69;;;23.52;39.21
77877;BME280;67251;50.844;7.978;2023-07-13T13:00:59;98914.78;;;23.53;39.75
77877;BME280;67251;50.844;7.978;2023-07-13T13:03:37;98917.44;;;23.63;38.43
77877;BME280;67251;50.844;7.978;2023-07-13T13:06:22;98913.97;;;23.91;39.10
77877;BME280;67251;50.844;7.978;2023-07-13T13:08:57;98911.69;;;24.28;39.06
77877;BME280;67251;50.844;7.978;2023-07-13T13:11:28;98920.59;;;24.43;36.28
77877;BME280;67251;50.844;7.978;2023-07-13T13:13:54;98906.25;;;24.22;37.69
77877;BME280;67251;50.844;7.978;2023-07-13T13:16:23;98896.66;;;24.54;37.10
77877;BME280;67251;50.844;7.978;2023-07-13T13:18:51;98903.84;;;24.93;36.00
77877;BME280;67251;50.844;7.978;2023-07-13T13:21:17;98901.00;;;24.79;36.34
77877;BME280;67251;50.844;7.978;2023-07-13T13:23:44;98907.03;;;24.57;35.77
77877;BME280;67251;50.844;7.978;2023-07-13T13:26:12;98899.47;;;24.20;36.42
77877;BME280;67251;50.844;7.978;2023-07-13T13:28:37;98916.91;;;24.00;37.62
77877;BME280;67251;50.844;7.978;2023-07-13T13:31:03;98913.03;;;24.30;37.29
77877;BME280;67251;50.844;7.978;2023-07-13T13:33:28;98909.97;;;24.37;37.26
77877;BME280;67251;50.844;7.978;2023-07-13T13:35:55;98908.28;;;24.41;37.04
77877;BME280;67251;50.844;7.978;2023-07-13T13:38:25;98914.66;;;24.31;36.81
77877;BME280;67251;50.844;7.978;2023-07-13T13:40:51;98905.97;;;24.53;37.02
77877;BME280;67251;50.844;7.978;2023-07-13T13:43:20;98914.69;;;24.55;37.36